sensor_id;sensor_type;location;lat;lon;timestamp;temperature;humidity
69009;SHT31;56065;52.472;13.380;2023-05-07T00:00:59;11.08;84.45
69009;SHT31;56065;52.472;13.380;2023-05-07T00:03:25;11.11;84.42
69009;SHT31;56065;52.472;13.380;2023-05-07T00:05:51;11.13;84.18
69009;SHT31;56065;52.472;13.380;2023-05-07T00:08:18;11.19;83.99
69009;SHT31;56065;52.472;13.380;2023-05-07T00:10:43;11.15;84.33
69009;SHT31;56065;52.472;13.380;2023-05-07T00:13:09;11.11;84.57
69009;SHT31;56065;52.472;13.380;2023-05-07T00:15:35;11.20;84.19
69009;SHT31;56065;52.472;13.380;2023-05-07T00:18:00;11.13;84.12
69009;SHT31;56065;52.472;13.380;2023-05-07T00:20:26;11.13;83.94
69009;SHT31;56065;52.472;13.380;2023-05-07T00:22:51;11.02;84.03
69009;SHT31;56065;52.472;13.380;2023-05-07T00:25:18;11.08;83.84
69009;SHT31;56065;52.472;13.380;2023-05-07T00:27:44;11.09;83.77
69009;SHT31;56065;52.472;13.380;2023-05-07T00:30:11;11.01;84.29
69009;SHT31;56065;52.472;13.380;2023-05-07T00:32:36;11.09;83.62
69009;SHT31;56065;52.472;13.380;2023-05-07T00:35:03;11.08;83.68
69009;SHT31;56065;52.472;13.380;2023-05-07T00:37:29;11.11;84.03
69009;SHT31;56065;52.472;13.380;2023-05-07T00:39:55;11.09;84.22
69009;SHT31;56065;52.472;13.380;2023-05-07T00:42:20;11.15;83.43
69009;SHT31;56065;52.472;13.380;2023-05-07T00:44:46;11.15;83.31
69009;SHT31;56065;52.472;13.380;2023-05-07T00:47:11;11.08;83.38
69009;SHT31;56065;52.472;13.380;2023-05-07T00:49:39;11.11;83.21
69009;SHT31;56065;52.472;13.380;2023-05-07T00:52:07;11.08;83.25
69009;SHT31;56065;52.472;13.380;2023-05-07T00:54:33;11.11;83.34
69009;SHT31;56065;52.472;13.380;2023-05-07T00:56:59;11.08;83.62
69009;SHT31;56065;52.472;13.380;2023-05-07T00:59:25;11.13;83.55
69009;SHT31;56065;52.472;13.380;2023-05-07T01:01:51;11.18;83.54
69009;SHT31;56065;52.472;13.380;2023-05-07T01:04:17;11.12;83.69
69009;SHT31;56065;52.472;13.380;2023-05-07T01:06:44;11.15;83.95
69009;SHT31;56065;52.472;13.380;2023-05-07T01:09:11;11.15;83.83
69009;SHT31;56065;52.472;13.380;2023-05-07T01:11:37;11.12;83.75
69009;SHT31;56065;52.472;13.380;2023-05-07T01:14:03;11.19;83.41
69009;SHT31;56065;52.472;13.380;2023-05-07T01:16:28;11.25;83.44
69009;SHT31;56065;52.472;13.380;2023-05-07T01:18:53;11.23;83.47
69009;SHT31;56065;52.472;13.380;2023-05-07T01:21:24;11.06;83.54
69009;SHT31;56065;52.472;13.380;2023-05-07T01:23:51;11.15;83.27
69009;SHT31;56065;52.472;13.380;2023-05-07T01:26:17;11.01;83.43
69009;SHT31;56065;52.472;13.380;2023-05-07T01:28:45;10.96;83.65
69009;SHT31;56065;52.472;13.380;2023-05-07T01:31:12;11.01;83.90
69009;SHT31;56065;52.472;13.380;2023-05-07T01:33:40;11.08;83.86
69009;SHT31;56065;52.472;13.380;2023-05-07T01:36:08;11.13;83.68
69009;SHT31;56065;52.472;13.380;2023-05-07T01:38:37;11.22;83.45
69009;SHT31;56065;52.472;13.380;2023-05-07T01:41:03;11.08;83.35
69009;SHT31;56065;52.472;13.380;2023-05-07T01:43:30;11.06;83.64
69009;SHT31;56065;52.472;13.380;2023-05-07T01:45:57;11.02;83.43
69009;SHT31;56065;52.472;13.380;2023-05-07T01:48:24;11.11;83.44
69009;SHT31;56065;52.472;13.380;2023-05-07T01:50:50;11.13;83.30
69009;SHT31;56065;52.472;13.380;2023-05-07T01:53:17;11.12;83.30
69009;SHT31;56065;52.472;13.380;2023-05-07T01:55:43;11.15;83.09
69009;SHT31;56065;52.472;13.380;2023-05-07T01:58:08;11.13;83.40
69009;SHT31;56065;52.472;13.380;2023-05-07T02:00:34;11.19;82.85
69009;SHT31;56065;52.472;13.380;2023-05-07T02:02:59;11.16;83.08
69009;SHT31;56065;52.472;13.380;2023-05-07T02:05:24;11.20;82.99
69009;SHT31;56065;52.472;13.380;2023-05-07T02:07:51;11.20;83.17
69009;SHT31;56065;52.472;13.380;2023-05-07T02:10:16;11.16;82.71
69009;SHT31;56065;52.472;13.380;2023-05-07T02:12:42;11.15;82.86
69009;SHT31;56065;52.472;13.380;2023-05-07T02:15:10;11.11;82.65
69009;SHT31;56065;52.472;13.380;2023-05-07T02:17:39;11.08;82.65
69009;SHT31;56065;52.472;13.380;2023-05-07T02:20:22;11.13;82.36
69009;SHT31;56065;52.472;13.380;2023-05-07T02:22:47;11.05;82.46
69009;SHT31;56065;52.472;13.380;2023-05-07T02:25:13;11.05;82.84
69009;SHT31;56065;52.472;13.380;2023-05-07T02:27:38;11.02;82.82
69009;SHT31;56065;52.472;13.380;2023-05-07T02:30:04;10.99;82.69
69009;SHT31;56065;52.472;13.380;2023-05-07T02:32:33;10.99;82.74
69009;SHT31;56065;52.472;13.380;2023-05-07T02:34:58;10.98;82.95
69009;SHT31;56065;52.472;13.380;2023-05-07T02:37:24;10.94;83.15
69009;SHT31;56065;52.472;13.380;2023-05-07T02:39:50;10.94;82.96
69009;SHT31;56065;52.472;13.380;2023-05-07T02:42:15;10.92;83.20
69009;SHT31;56065;52.472;13.380;2023-05-07T02:44:40;10.95;83.12
69009;SHT31;56065;52.472;13.380;2023-05-07T02:47:06;10.89;83.34
69009;SHT31;56065;52.472;13.380;2023-05-07T02:49:34;10.99;82.95
69009;SHT31;56065;52.472;13.380;2023-05-07T02:51:59;11.01;83.06
69009;SHT31;56065;52.472;13.380;2023-05-07T02:54:24;11.02;83.20
69009;SHT31;56065;52.472;13.380;2023-05-07T02:56:50;11.06;83.08
69009;SHT31;56065;52.472;13.380;2023-05-07T02:59:15;11.03;82.56
69009;SHT31;56065;52.472;13.380;2023-05-07T03:01:40;11.08;82.69
69009;SHT31;56065;52.472;13.380;2023-05-07T03:04:09;11.08;82.53
69009;SHT31;56065;52.472;13.380;2023-05-07T03:06:34;11.13;82.37
69009;SHT31;56065;52.472;13.380;2023-05-07T03:09:00;11.06;82.63
69009;SHT31;56065;52.472;13.380;2023-05-07T03:11:25;11.09;82.41
69009;SHT31;56065;52.472;13.380;2023-05-07T03:13:50;11.05;82.72
69009;SHT31;56065;52.472;13.380;2023-05-07T03:16:16;11.05;82.65
69009;SHT31;56065;52.472;13.380;2023-05-07T03:18:41;11.13;82.89
69009;SHT31;56065;52.472;13.380;2023-05-07T03:21:07;11.19;82.47
69009;SHT31;56065;52.472;13.380;2023-05-07T03:23:32;11.13;82.42
69009;SHT31;56065;52.472;13.380;2023-05-07T03:25:57;11.12;82.40
69009;SHT31;56065;52.472;13.380;2023-05-07T03:28:23;11.15;82.12
69009;SHT31;56065;52.472;13.380;2023-05-07T03:30:48;11.06;82.09
69009;SHT31;56065;52.472;13.380;2023-05-07T03:33:14;11.13;82.33
69009;SHT31;56065;52.472;13.380;2023-05-07T03:35:39;11.12;82.31
69009;SHT31;56065;52.472;13.380;2023-05-07T03:38:04;11.19;81.86
69009;SHT31;56065;52.472;13.380;2023-05-07T03:40:30;11.05;81.85
69009;SHT31;56065;52.472;13.380;2023-05-07T03:42:55;11.03;82.25
69009;SHT31;56065;52.472;13.380;2023-05-07T03:45:21;10.99;82.49
69009;SHT31;56065;52.472;13.380;2023-05-07T03:47:46;11.01;82.31
69009;SHT31;56065;52.472;13.380;2023-05-07T03:50:11;10.92;82.60
69009;SHT31;56065;52.472;13.380;2023-05-07T03:52:37;10.95;82.48
69009;SHT31;56065;52.472;13.380;2023-05-07T03:55:02;10.86;82.57
69009;SHT31;56065;52.472;13.380;2023-05-07T03:57:28;10.94;82.37
69009;SHT31;56065;52.472;13.380;2023-05-07T03:59:53;10.92;82.91
69009;SHT31;56065;52.472;13.380;2023-05-07T04:02:18;10.99;82.39
69009;SHT31;56065;52.472;13.380;2023-05-07T04:04:44;10.95;82.73
69009;SHT31;56065;52.472;13.380;2023-05-07T04:07:09;10.94;82.53
69009;SHT31;56065;52.472;13.380;2023-05-07T04:09:35;11.06;82.67
69009;SHT31;56065;52.472;13.380;2023-05-07T04:12:00;11.09;82.55
69009;SHT31;56065;52.472;13.380;2023-05-07T04:14:26;11.06;82.22
69009;SHT31;56065;52.472;13.380;2023-05-07T04:16:52;11.06;82.05
69009;SHT31;56065;52.472;13.380;2023-05-07T04:19:17;11.02;82.29
69009;SHT31;56065;52.472;13.380;2023-05-07T04:21:42;11.02;82.38
69009;SHT31;56065;52.472;13.380;2023-05-07T04:24:08;11.01;82.29
69009;SHT31;56065;52.472;13.380;2023-05-07T04:26:33;11.05;81.94
69009;SHT31;56065;52.472;13.380;2023-05-07T04:28:59;11.11;82.26
69009;SHT31;56065;52.472;13.380;2023-05-07T04:31:25;11.20;82.34
69009;SHT31;56065;52.472;13.380;2023-05-07T04:33:51;11.20;81.80
69009;SHT31;56065;52.472;13.380;2023-05-07T04:36:16;11.20;81.39
69009;SHT31;56065;52.472;13.380;2023-05-07T04:38:42;11.20;81.57
69009;SHT31;56065;52.472;13.380;2023-05-07T04:41:08;11.16;81.40
69009;SHT31;56065;52.472;13.380;2023-05-07T04:43:34;11.23;81.43
69009;SHT31;56065;52.472;13.380;2023-05-07T04:46:00;11.20;81.48
69009;SHT31;56065;52.472;13.380;2023-05-07T04:48:25;11.25;81.12
69009;SHT31;56065;52.472;13.380;2023-05-07T04:50:52;11.12;80.91
69009;SHT31;56065;52.472;13.380;2023-05-07T04:53:18;10.99;81.44
69009;SHT31;56065;52.472;13.380;2023-05-07T04:55:44;11.23;81.35
69009;SHT31;56065;52.472;13.380;2023-05-07T04:58:10;11.29;81.12
69009;SHT31;56065;52.472;13.380;2023-05-07T05:00:36;11.42;81.23
69009;SHT31;56065;52.472;13.380;2023-05-07T05:03:01;11.53;80.92
69009;SHT31;56065;52.472;13.380;2023-05-07T05:05:26;11.52;80.55
69009;SHT31;56065;52.472;13.380;2023-05-07T05:07:52;11.46;80.84
69009;SHT31;56065;52.472;13.380;2023-05-07T05:10:18;11.52;80.03
69009;SHT31;56065;52.472;13.380;2023-05-07T05:12:43;11.52;79.89
69009;SHT31;56065;52.472;13.380;2023-05-07T05:15:11;11.43;79.47
69009;SHT31;56065;52.472;13.380;2023-05-07T05:17:37;11.52;80.09
69009;SHT31;56065;52.472;13.380;2023-05-07T05:20:03;11.54;79.44
69009;SHT31;56065;52.472;13.380;2023-05-07T05:22:29;11.46;79.36
69009;SHT31;56065;52.472;13.380;2023-05-07T05:24:56;11.52;79.25
69009;SHT31;56065;52.472;13.380;2023-05-07T05:27:21;11.62;79.59
69009;SHT31;56065;52.472;13.380;2023-05-07T05:29:46;11.69;79.31
69009;SHT31;56065;52.472;13.380;2023-05-07T05:32:12;11.57;79.97
69009;SHT31;56065;52.472;13.380;2023-05-07T05:34:37;11.64;79.63
69009;SHT31;56065;52.472;13.380;2023-05-07T05:37:02;11.78;79.26
69009;SHT31;56065;52.472;13.380;2023-05-07T05:39:28;11.84;78.96
69009;SHT31;56065;52.472;13.380;2023-05-07T05:41:53;11.87;78.59
69009;SHT31;56065;52.472;13.380;2023-05-07T05:44:18;11.97;78.97
69009;SHT31;56065;52.472;13.380;2023-05-07T05:46:44;12.14;78.25
69009;SHT31;56065;52.472;13.380;2023-05-07T05:49:10;12.20;78.44
69009;SHT31;56065;52.472;13.380;2023-05-07T05:51:35;12.34;77.51
69009;SHT31;56065;52.472;13.380;2023-05-07T05:54:00;12.35;77.10
69009;SHT31;56065;52.472;13.380;2023-05-07T05:56:26;12.42;77.07
69009;SHT31;56065;52.472;13.380;2023-05-07T05:58:51;12.43;76.89
69009;SHT31;56065;52.472;13.380;2023-05-07T06:01:17;12.55;76.75
69009;SHT31;56065;52.472;13.380;2023-05-07T06:03:43;12.67;75.92
69009;SHT31;56065;52.472;13.380;2023-05-07T06:06:09;12.84;76.23
69009;SHT31;56065;52.472;13.380;2023-05-07T06:08:34;13.11;76.04
69009;SHT31;56065;52.472;13.380;2023-05-07T06:11:01;13.45;76.01
69009;SHT31;56065;52.472;13.380;2023-05-07T06:13:26;13.65;75.41
69009;SHT31;56065;52.472;13.380;2023-05-07T06:15:51;13.71;73.81
69009;SHT31;56065;52.472;13.380;2023-05-07T06:18:17;13.54;74.18
69009;SHT31;56065;52.472;13.380;2023-05-07T06:20:42;13.58;73.91
69009;SHT31;56065;52.472;13.380;2023-05-07T06:23:07;13.54;73.00
69009;SHT31;56065;52.472;13.380;2023-05-07T06:25:33;13.61;73.51
69009;SHT31;56065;52.472;13.380;2023-05-07T06:27:58;13.66;73.50
69009;SHT31;56065;52.472;13.380;2023-05-07T06:30:23;13.79;73.75
69009;SHT31;56065;52.472;13.380;2023-05-07T06:32:49;13.69;72.71
69009;SHT31;56065;52.472;13.380;2023-05-07T06:35:14;13.59;72.81
69009;SHT31;56065;52.472;13.380;2023-05-07T06:37:41;13.50;73.58
69009;SHT31;56065;52.472;13.380;2023-05-07T06:40:08;13.43;73.84
69009;SHT31;56065;52.472;13.380;2023-05-07T06:42:33;13.50;73.69
69009;SHT31;56065;52.472;13.380;2023-05-07T06:44:59;13.53;73.37
69009;SHT31;56065;52.472;13.380;2023-05-07T06:47:24;13.62;73.53
69009;SHT31;56065;52.472;13.380;2023-05-07T06:49:50;13.71;73.56
69009;SHT31;56065;52.472;13.380;2023-05-07T06:52:15;13.75;72.66
69009;SHT31;56065;52.472;13.380;2023-05-07T06:54:41;13.64;72.80
69009;SHT31;56065;52.472;13.380;2023-05-07T06:57:06;13.53;73.66
69009;SHT31;56065;52.472;13.380;2023-05-07T06:59:32;13.69;74.15
69009;SHT31;56065;52.472;13.380;2023-05-07T07:01:57;13.87;72.39
69009;SHT31;56065;52.472;13.380;2023-05-07T07:04:22;13.99;72.43
69009;SHT31;56065;52.472;13.380;2023-05-07T07:06:49;14.38;70.84
69009;SHT31;56065;52.472;13.380;2023-05-07T07:09:14;14.57;70.31
69009;SHT31;56065;52.472;13.380;2023-05-07T07:11:40;14.60;70.30
69009;SHT31;56065;52.472;13.380;2023-05-07T07:14:05;14.67;69.24
69009;SHT31;56065;52.472;13.380;2023-05-07T07:16:30;15.29;69.14
69009;SHT31;56065;52.472;13.380;2023-05-07T07:18:56;15.63;68.00
69009;SHT31;56065;52.472;13.380;2023-05-07T07:21:21;17.54;66.39
69009;SHT31;56065;52.472;13.380;2023-05-07T07:23:46;19.24;63.30
69009;SHT31;56065;52.472;13.380;2023-05-07T07:26:12;20.37;59.08
69009;SHT31;56065;52.472;13.380;2023-05-07T07:28:44;21.90;55.03
69009;SHT31;56065;52.472;13.380;2023-05-07T07:31:09;23.72;54.10
69009;SHT31;56065;52.472;13.380;2023-05-07T07:33:35;25.28;49.80
69009;SHT31;56065;52.472;13.380;2023-05-07T07:36:00;24.59;48.58
69009;SHT31;56065;52.472;13.380;2023-05-07T07:38:26;23.23;50.12
69009;SHT31;56065;52.472;13.380;2023-05-07T07:40:51;24.20;49.16
69009;SHT31;56065;52.472;13.380;2023-05-07T07:43:16;25.72;48.37
69009;SHT31;56065;52.472;13.380;2023-05-07T07:45:42;26.10;46.02
69009;SHT31;56065;52.472;13.380;2023-05-07T07:48:07;24.78;45.92
69009;SHT31;56065;52.472;13.380;2023-05-07T07:50:32;22.62;49.79
69009;SHT31;56065;52.472;13.380;2023-05-07T07:52:58;22.21;51.32
69009;SHT31;56065;52.472;13.380;2023-05-07T07:55:23;21.42;52.05
69009;SHT31;56065;52.472;13.380;2023-05-07T07:57:49;21.23;53.39
69009;SHT31;56065;52.472;13.380;2023-05-07T08:00:15;22.12;51.99
69009;SHT31;56065;52.472;13.380;2023-05-07T08:02:41;23.11;50.74
69009;SHT31;56065;52.472;13.380;2023-05-07T08:05:07;23.99;49.60
69009;SHT31;56065;52.472;13.380;2023-05-07T08:07:32;25.35;46.83
69009;SHT31;56065;52.472;13.380;2023-05-07T08:09:58;27.30;46.13
69009;SHT31;56065;52.472;13.380;2023-05-07T08:12:23;28.09;42.77
69009;SHT31;56065;52.472;13.380;2023-05-07T08:14:48;28.83;40.24
69009;SHT31;56065;52.472;13.380;2023-05-07T08:17:14;29.76;40.87
69009;SHT31;56065;52.472;13.380;2023-05-07T08:19:41;29.14;40.18
69009;SHT31;56065;52.472;13.380;2023-05-07T08:22:06;29.04;41.72
69009;SHT31;56065;52.472;13.380;2023-05-07T08:24:32;29.04;41.42
69009;SHT31;56065;52.472;13.380;2023-05-07T08:26:57;29.03;40.82
69009;SHT31;56065;52.472;13.380;2023-05-07T08:29:22;28.44;40.85
69009;SHT31;56065;52.472;13.380;2023-05-07T08:31:48;29.45;41.35
69009;SHT31;56065;52.472;13.380;2023-05-07T08:34:13;29.85;40.62
69009;SHT31;56065;52.472;13.380;2023-05-07T08:36:38;29.72;39.24
69009;SHT31;56065;52.472;13.380;2023-05-07T08:39:04;28.86;39.44
69009;SHT31;56065;52.472;13.380;2023-05-07T08:41:30;28.94;40.38
69009;SHT31;56065;52.472;13.380;2023-05-07T08:43:57;30.05;39.61
69009;SHT31;56065;52.472;13.380;2023-05-07T08:46:24;30.71;39.27
69009;SHT31;56065;52.472;13.380;2023-05-07T08:48:51;29.44;39.57
69009;SHT31;56065;52.472;13.380;2023-05-07T08:51:19;28.24;40.04
69009;SHT31;56065;52.472;13.380;2023-05-07T08:53:46;26.18;43.24
69009;SHT31;56065;52.472;13.380;2023-05-07T08:56:14;25.28;43.82
69009;SHT31;56065;52.472;13.380;2023-05-07T08:58:41;24.53;44.94
69009;SHT31;56065;52.472;13.380;2023-05-07T09:01:09;26.17;44.55
69009;SHT31;56065;52.472;13.380;2023-05-07T09:03:38;27.10;43.77
69009;SHT31;56065;52.472;13.380;2023-05-07T09:06:03;28.16;40.84
69009;SHT31;56065;52.472;13.380;2023-05-07T09:08:29;26.84;41.77
69009;SHT31;56065;52.472;13.380;2023-05-07T09:10:54;25.72;43.74
69009;SHT31;56065;52.472;13.380;2023-05-07T09:13:20;25.52;44.52
69009;SHT31;56065;52.472;13.380;2023-05-07T09:15:45;25.26;44.90
69009;SHT31;56065;52.472;13.380;2023-05-07T09:18:12;24.19;45.33
69009;SHT31;56065;52.472;13.380;2023-05-07T09:20:38;24.01;46.05
69009;SHT31;56065;52.472;13.380;2023-05-07T09:23:03;24.52;46.49
69009;SHT31;56065;52.472;13.380;2023-05-07T09:25:30;24.71;44.96
69009;SHT31;56065;52.472;13.380;2023-05-07T09:27:56;25.46;45.41
69009;SHT31;56065;52.472;13.380;2023-05-07T09:30:21;25.22;44.72
69009;SHT31;56065;52.472;13.380;2023-05-07T09:32:46;25.31;44.66
69009;SHT31;56065;52.472;13.380;2023-05-07T09:35:16;26.03;43.66
69009;SHT31;56065;52.472;13.380;2023-05-07T09:37:46;25.49;43.81
69009;SHT31;56065;52.472;13.380;2023-05-07T09:40:26;25.35;45.33
69009;SHT31;56065;52.472;13.380;2023-05-07T09:42:52;24.88;46.04
69009;SHT31;56065;52.472;13.380;2023-05-07T09:45:36;23.94;45.68
69009;SHT31;56065;52.472;13.380;2023-05-07T09:48:05;23.07;47.20
69009;SHT31;56065;52.472;13.380;2023-05-07T09:50:45;22.15;49.23
69009;SHT31;56065;52.472;13.380;2023-05-07T09:53:12;21.80;49.50
69009;SHT31;56065;52.472;13.380;2023-05-07T09:55:39;22.51;50.12
69009;SHT31;56065;52.472;13.380;2023-05-07T09:58:06;22.39;48.09
69009;SHT31;56065;52.472;13.380;2023-05-07T10:00:32;21.66;49.13
69009;SHT31;56065;52.472;13.380;2023-05-07T10:02:58;20.84;50.60
69009;SHT31;56065;52.472;13.380;2023-05-07T10:05:23;20.72;52.07
69009;SHT31;56065;52.472;13.380;2023-05-07T10:07:50;21.33;51.00
69009;SHT31;56065;52.472;13.380;2023-05-07T10:10:17;21.39;49.85
69009;SHT31;56065;52.472;13.380;2023-05-07T10:12:42;22.22;47.70
69009;SHT31;56065;52.472;13.380;2023-05-07T10:15:09;22.96;49.44
69009;SHT31;56065;52.472;13.380;2023-05-07T10:17:36;24.87;46.72
69009;SHT31;56065;52.472;13.380;2023-05-07T10:20:03;26.38;43.00
69009;SHT31;56065;52.472;13.380;2023-05-07T10:22:33;25.59;42.38
69009;SHT31;56065;52.472;13.380;2023-05-07T10:25:02;25.28;44.95
69009;SHT31;56065;52.472;13.380;2023-05-07T10:27:29;24.47;44.16
69009;SHT31;56065;52.472;13.380;2023-05-07T10:33:05;22.11;48.37
69009;SHT31;56065;52.472;13.380;2023-05-07T10:35:38;21.54;48.85
69009;SHT31;56065;52.472;13.380;2023-05-07T10:38:05;20.71;49.66
69009;SHT31;56065;52.472;13.380;2023-05-07T10:40:31;19.94;51.10
69009;SHT31;56065;52.472;13.380;2023-05-07T10:42:58;19.54;53.11
69009;SHT31;56065;52.472;13.380;2023-05-07T10:45:28;19.69;53.27
69009;SHT31;56065;52.472;13.380;2023-05-07T10:48:14;19.65;53.65
69009;SHT31;56065;52.472;13.380;2023-05-07T10:50:41;20.18;52.47
69009;SHT31;56065;52.472;13.380;2023-05-07T10:55:46;20.34;51.87
69009;SHT31;56065;52.472;13.380;2023-05-07T11:00:47;19.94;53.08
69009;SHT31;56065;52.472;13.380;2023-05-07T11:03:13;20.13;52.79
69009;SHT31;56065;52.472;13.380;2023-05-07T11:05:41;20.36;52.10
69009;SHT31;56065;52.472;13.380;2023-05-07T11:08:06;20.86;51.21
69009;SHT31;56065;52.472;13.380;2023-05-07T11:10:53;21.84;49.91
69009;SHT31;56065;52.472;13.380;2023-05-07T11:16:36;22.34;48.07
69009;SHT31;56065;52.472;13.380;2023-05-07T11:19:03;21.80;48.84
69009;SHT31;56065;52.472;13.380;2023-05-07T11:23:59;20.96;50.22
69009;SHT31;56065;52.472;13.380;2023-05-07T11:26:25;20.99;50.02
69009;SHT31;56065;52.472;13.380;2023-05-07T11:28:52;21.33;49.53
69009;SHT31;56065;52.472;13.380;2023-05-07T11:31:26;21.40;49.10
69009;SHT31;56065;52.472;13.380;2023-05-07T11:33:53;21.91;48.69
69009;SHT31;56065;52.472;13.380;2023-05-07T11:36:19;21.85;48.04
69009;SHT31;56065;52.472;13.380;2023-05-07T11:38:45;21.64;48.84
69009;SHT31;56065;52.472;13.380;2023-05-07T11:41:11;21.83;48.75
69009;SHT31;56065;52.472;13.380;2023-05-07T11:43:36;23.27;47.91
69009;SHT31;56065;52.472;13.380;2023-05-07T11:46:07;24.59;45.09
69009;SHT31;56065;52.472;13.380;2023-05-07T11:48:33;25.63;42.90
69009;SHT31;56065;52.472;13.380;2023-05-07T11:53:27;25.94;42.64
69009;SHT31;56065;52.472;13.380;2023-05-07T11:55:55;25.56;43.37
69009;SHT31;56065;52.472;13.380;2023-05-07T11:58:22;24.17;44.45
69009;SHT31;56065;52.472;13.380;2023-05-07T12:00:49;23.74;45.98
69009;SHT31;56065;52.472;13.380;2023-05-07T12:03:15;24.08;45.25
69009;SHT31;56065;52.472;13.380;2023-05-07T12:05:40;23.58;45.96
69009;SHT31;56065;52.472;13.380;2023-05-07T12:08:07;23.28;45.38
69009;SHT31;56065;52.472;13.380;2023-05-07T12:10:32;23.92;45.18
69009;SHT31;56065;52.472;13.380;2023-05-07T12:12:58;25.11;44.07
69009;SHT31;56065;52.472;13.380;2023-05-07T12:15:23;25.24;43.00
69009;SHT31;56065;52.472;13.380;2023-05-07T12:17:48;24.46;44.03
69009;SHT31;56065;52.472;13.380;2023-05-07T12:20:14;24.27;44.47
69009;SHT31;56065;52.472;13.380;2023-05-07T12:22:40;25.16;44.33
69009;SHT31;56065;52.472;13.380;2023-05-07T12:25:06;25.55;44.86
69009;SHT31;56065;52.472;13.380;2023-05-07T12:27:32;25.05;43.10
69009;SHT31;56065;52.472;13.380;2023-05-07T12:29:57;24.54;43.85
69009;SHT31;56065;52.472;13.380;2023-05-07T12:32:23;24.12;44.56
69009;SHT31;56065;52.472;13.380;2023-05-07T12:34:50;24.43;44.62
69009;SHT31;56065;52.472;13.380;2023-05-07T12:37:16;24.57;42.99
69009;SHT31;56065;52.472;13.380;2023-05-07T12:39:48;24.56;43.77
69009;SHT31;56065;52.472;13.380;2023-05-07T12:42:20;24.57;45.04
69009;SHT31;56065;52.472;13.380;2023-05-07T12:44:50;24.53;44.21
69009;SHT31;56065;52.472;13.380;2023-05-07T12:47:17;24.17;43.34
69009;SHT31;56065;52.472;13.380;2023-05-07T12:49:43;24.54;44.22
69009;SHT31;56065;52.472;13.380;2023-05-07T12:52:11;24.67;45.01
69009;SHT31;56065;52.472;13.380;2023-05-07T12:54:38;24.56;43.75
69009;SHT31;56065;52.472;13.380;2023-05-07T12:57:09;23.76;44.40
69009;SHT31;56065;52.472;13.380;2023-05-07T12:59:39;22.97;45.54
69009;SHT31;56065;52.472;13.380;2023-05-07T13:02:05;22.77;46.30
69009;SHT31;56065;52.472;13.380;2023-05-07T13:04:31;22.39;46.65
69009;SHT31;56065;52.472;13.380;2023-05-07T13:06:58;22.89;46.12
69009;SHT31;56065;52.472;13.380;2023-05-07T13:09:24;23.23;45.82
69009;SHT31;56065;52.472;13.380;2023-05-07T13:11:49;23.11;45.43
69009;SHT31;56065;52.472;13.380;2023-05-07T13:14:15;22.89;46.09
69009;SHT31;56065;52.472;13.380;2023-05-07T13:16:40;23.03;45.59
69009;SHT31;56065;52.472;13.380;2023-05-07T13:19:05;23.40;45.44
69009;SHT31;56065;52.472;13.380;2023-05-07T13:21:31;24.35;45.73
69009;SHT31;56065;52.472;13.380;2023-05-07T13:23:59;25.28;43.98
69009;SHT31;56065;52.472;13.380;2023-05-07T13:26:25;25.75;44.15
69009;SHT31;56065;52.472;13.380;2023-05-07T13:28:50;26.16;42.69
69009;SHT31;56065;52.472;13.380;2023-05-07T13:31:17;26.43;42.80
69009;SHT31;56065;52.472;13.380;2023-05-07T13:33:42;26.25;41.63
69009;SHT31;56065;52.472;13.380;2023-05-07T13:36:08;26.23;40.41
69009;SHT31;56065;52.472;13.380;2023-05-07T13:38:33;26.06;41.02
69009;SHT31;56065;52.472;13.380;2023-05-07T13:40:58;25.58;42.52
69009;SHT31;56065;52.472;13.380;2023-05-07T13:43:24;24.68;41.64
69009;SHT31;56065;52.472;13.380;2023-05-07T13:45:50;23.86;42.82
69009;SHT31;56065;52.472;13.380;2023-05-07T13:48:15;23.55;44.52
69009;SHT31;56065;52.472;13.380;2023-05-07T13:50:40;23.94;44.59
69009;SHT31;56065;52.472;13.380;2023-05-07T13:53:07;23.86;43.82
69009;SHT31;56065;52.472;13.380;2023-05-07T13:55:33;23.57;44.64
69009;SHT31;56065;52.472;13.380;2023-05-07T13:57:59;23.43;44.57
69009;SHT31;56065;52.472;13.380;2023-05-07T14:00:26;23.78;43.67
69009;SHT31;56065;52.472;13.380;2023-05-07T14:02:52;23.94;43.34
69009;SHT31;56065;52.472;13.380;2023-05-07T14:05:18;24.10;43.64
69009;SHT31;56065;52.472;13.380;2023-05-07T14:07:43;24.47;43.01
69009;SHT31;56065;52.472;13.380;2023-05-07T14:10:09;23.74;42.64
69009;SHT31;56065;52.472;13.380;2023-05-07T14:12:36;22.62;44.56
69009;SHT31;56065;52.472;13.380;2023-05-07T14:15:01;22.60;45.24
69009;SHT31;56065;52.472;13.380;2023-05-07T14:17:27;23.02;45.51
69009;SHT31;56065;52.472;13.380;2023-05-07T14:19:53;23.78;45.88
69009;SHT31;56065;52.472;13.380;2023-05-07T14:22:20;24.46;44.49
69009;SHT31;56065;52.472;13.380;2023-05-07T14:24:45;24.19;43.42
69009;SHT31;56065;52.472;13.380;2023-05-07T14:27:11;24.30;43.42
69009;SHT31;56065;52.472;13.380;2023-05-07T14:29:36;24.49;43.44
69009;SHT31;56065;52.472;13.380;2023-05-07T14:32:02;24.44;43.57
69009;SHT31;56065;52.472;13.380;2023-05-07T14:34:28;24.29;42.47
69009;SHT31;56065;52.472;13.380;2023-05-07T14:36:54;24.01;42.10
69009;SHT31;56065;52.472;13.380;2023-05-07T14:39:20;23.82;43.14
69009;SHT31;56065;52.472;13.380;2023-05-07T14:41:45;24.12;43.72
69009;SHT31;56065;52.472;13.380;2023-05-07T14:44:11;24.53;43.59
69009;SHT31;56065;52.472;13.380;2023-05-07T14:46:36;24.81;43.17
69009;SHT31;56065;52.472;13.380;2023-05-07T14:49:02;24.94;42.07
69009;SHT31;56065;52.472;13.380;2023-05-07T14:51:27;24.85;42.49
69009;SHT31;56065;52.472;13.380;2023-05-07T14:53:53;25.18;42.68
69009;SHT31;56065;52.472;13.380;2023-05-07T14:56:19;25.62;41.80
69009;SHT31;56065;52.472;13.380;2023-05-07T14:58:47;25.79;41.48
69009;SHT31;56065;52.472;13.380;2023-05-07T15:01:13;25.92;40.57
69009;SHT31;56065;52.472;13.380;2023-05-07T15:03:39;25.72;40.72
69009;SHT31;56065;52.472;13.380;2023-05-07T15:06:04;25.56;41.83
69009;SHT31;56065;52.472;13.380;2023-05-07T15:08:30;25.55;41.87
69009;SHT31;56065;52.472;13.380;2023-05-07T15:10:55;24.99;43.09
69009;SHT31;56065;52.472;13.380;2023-05-07T15:13:21;24.37;43.37
69009;SHT31;56065;52.472;13.380;2023-05-07T15:15:47;23.74;43.31
69009;SHT31;56065;52.472;13.380;2023-05-07T15:18:14;23.50;43.51
69009;SHT31;56065;52.472;13.380;2023-05-07T15:20:40;23.26;44.61
69009;SHT31;56065;52.472;13.380;2023-05-07T15:23:07;23.13;44.37
69009;SHT31;56065;52.472;13.380;2023-05-07T15:25:37;22.83;44.49